Aviation Digital Data Service (ADDS)

Output produced by METARs form (1918 UTC 09 December 2016)
found at http://aviationweather.gov/adds/metars/
 
KRDU 091733Z 0918/1018 35009G15KT P6SM SKC 
     FM092200 VRB04KT P6SM SKC